createdAt,value
2023-05-02T00:00:00.653Z,100710.84
2023-05-02T00:01:06.291Z,100711.84
2023-05-02T00:02:10.411Z,100705.78
2023-05-02T00:03:14.220Z,100706.81
2023-05-02T00:04:18.244Z,100707.47
2023-05-02T00:05:21.788Z,100703.94
2023-05-02T00:06:25.216Z,100713.25
2023-05-02T00:07:29.752Z,100705.56
2023-05-02T00:08:33.411Z,100706.56
2023-05-02T00:09:36.807Z,100709.50
2023-05-02T00:10:40.921Z,100703.03
2023-05-02T00:11:45.119Z,100708.66
2023-05-02T00:12:48.577Z,100698.88
2023-05-02T00:13:52.386Z,100700.28
2023-05-02T00:14:56.218Z,100703.59
2023-05-02T00:15:59.775Z,100696.50
2023-05-02T00:17:03.548Z,100698.19
2023-05-02T00:18:07.311Z,100696.34
2023-05-02T00:19:10.937Z,100697.19
2023-05-02T00:20:14.468Z,100689.91
2023-05-02T00:21:17.993Z,100690.75
2023-05-02T00:22:21.584Z,100691.78
2023-05-02T00:23:25.380Z,100691.78
2023-05-02T00:24:28.945Z,100685.69
2023-05-02T00:25:32.277Z,100685.69
2023-05-02T00:26:35.518Z,100689.06
2023-05-02T00:27:39.074Z,100681.94
2023-05-02T00:28:43.089Z,100687.75
2023-05-02T00:29:48.503Z,100681.69
2023-05-02T00:30:52.325Z,100679.41
2023-05-02T00:31:56.094Z,100673.34
2023-05-02T00:32:59.899Z,100667.28
2023-05-02T00:34:03.340Z,100669.97
2023-05-02T00:35:07.860Z,100665.63
2023-05-02T00:36:17.870Z,100665.63
2023-05-02T00:37:21.700Z,100659.56
2023-05-02T00:38:24.846Z,100657.88
2023-05-02T00:39:28.809Z,100654.81
2023-05-02T00:40:32.306Z,100653.31
2023-05-02T00:41:35.955Z,100652.88
2023-05-02T00:42:39.552Z,100648.88
2023-05-02T00:43:43.302Z,100643.03
2023-05-02T00:44:47.536Z,100651.34
2023-05-02T00:45:51.259Z,100642.59
2023-05-02T00:46:56.386Z,100638.22
2023-05-02T00:48:00.616Z,100639.25
2023-05-02T00:49:04.207Z,100641.09
2023-05-02T00:50:08.489Z,100636.72
2023-05-02T00:51:13.930Z,100635.88
2023-05-02T00:52:17.300Z,100636.53
2023-05-02T00:53:20.946Z,100628.41
2023-05-02T00:54:24.532Z,100633.81
2023-05-02T00:55:27.803Z,100627.56
2023-05-02T00:56:31.243Z,100628.41
2023-05-02T00:57:34.530Z,100626.72
2023-05-02T00:58:41.837Z,100627.56
2023-05-02T00:59:45.588Z,100624.03
2023-05-02T01:01:26.213Z,100620.28
2023-05-02T01:02:50.260Z,100615.91
2023-05-02T01:04:05.422Z,100611.75
2023-05-02T01:05:16.459Z,100603.81
2023-05-02T01:06:48.059Z,100609.22
2023-05-02T01:08:10.724Z,100607.56
2023-05-02T01:09:51.215Z,100609.41
2023-05-02T01:11:05.976Z,100611.28
2023-05-02T01:12:20.928Z,100605.25
2023-05-02T01:13:34.832Z,100606.28
2023-05-02T01:14:43.081Z,100606.47
2023-05-02T01:15:46.707Z,100601.25
2023-05-02T01:16:51.031Z,100598.53
2023-05-02T01:17:55.554Z,100597.72
2023-05-02T01:18:59.414Z,100603.34
2023-05-02T01:20:14.854Z,100607.72
2023-05-02T01:21:18.400Z,100597.09
2023-05-02T01:22:21.799Z,100599.13
2023-05-02T01:23:34.665Z,100599.97
2023-05-02T01:25:03.361Z,100604.53
2023-05-02T01:26:49.616Z,100595.59
2023-05-02T01:27:59.576Z,100599.34
2023-05-02T01:29:07.130Z,100604.94
2023-05-02T01:30:11.441Z,100603.28
2023-05-02T01:31:14.855Z,100598.69
2023-05-02T01:32:18.708Z,100600.75
2023-05-02T01:33:22.039Z,100597.03
2023-05-02T01:34:26.221Z,100599.09
2023-05-02T01:35:29.574Z,100594.06
2023-05-02T01:36:33.184Z,100591.13
2023-05-02T01:37:37.693Z,100587.97
2023-05-02T01:38:41.443Z,100585.66
2023-05-02T01:39:44.975Z,100586.06
2023-05-02T01:40:48.336Z,100585.22
2023-05-02T01:41:52.998Z,100584.38
2023-05-02T01:42:56.257Z,100587.28
2023-05-02T01:44:00.587Z,100581.84
2023-05-02T01:45:04.920Z,100572.28
2023-05-02T01:46:08.532Z,100575.84
2023-05-02T01:47:12.281Z,100573.97
2023-05-02T01:48:16.765Z,100573.97
2023-05-02T01:49:20.722Z,100582.88
2023-05-02T01:50:25.467Z,100571.03
2023-05-02T01:51:32.434Z,100580.66
2023-05-02T01:52:36.265Z,100576.09
2023-05-02T01:53:39.636Z,100581.28
2023-05-02T01:54:43.051Z,100577.75
2023-05-02T01:55:46.774Z,100578.56
2023-05-02T01:56:50.454Z,100574.00
2023-05-02T01:57:54.723Z,100572.97
2023-05-02T01:58:58.174Z,100574.66
2023-05-02T02:00:02.457Z,100576.34
2023-05-02T02:01:28.463Z,100568.22
2023-05-02T02:02:32.180Z,100561.13
2023-05-02T02:03:36.033Z,100552.19
2023-05-02T02:04:39.867Z,100554.88
2023-05-02T02:05:46.388Z,100555.72
2023-05-02T02:06:53.678Z,100555.72
2023-05-02T02:07:57.445Z,100552.00
2023-05-02T02:09:01.294Z,100559.09
2023-05-02T02:10:05.359Z,100555.31
2023-05-02T02:11:11.689Z,100555.31
2023-05-02T02:12:50.019Z,100548.25
2023-05-02T02:13:56.630Z,100543.22
2023-05-02T02:15:18.451Z,100546.34
2023-05-02T02:16:26.356Z,100549.22
2023-05-02T02:17:44.390Z,100552.97
2023-05-02T02:18:47.908Z,100548.41
2023-05-02T02:19:51.668Z,100552.78
2023-05-02T02:20:55.796Z,100550.06
2023-05-02T02:22:00.135Z,100548.22
2023-05-02T02:23:05.919Z,100549.88
2023-05-02T02:24:09.204Z,100547.19
2023-05-02T02:25:13.776Z,100542.63
2023-05-02T02:26:20.185Z,100543.63
2023-05-02T02:27:24.088Z,100538.22
2023-05-02T02:28:27.573Z,100540.94
2023-05-02T02:29:32.335Z,100538.22
2023-05-02T02:30:36.364Z,100535.72
2023-05-02T02:31:41.094Z,100546.13
2023-05-02T02:32:44.861Z,100545.31
2023-05-02T02:33:48.676Z,100543.22
2023-05-02T02:34:52.047Z,100536.16
2023-05-02T02:36:28.927Z,100537.81
2023-05-02T02:37:40.382Z,100532.41
2023-05-02T02:39:10.822Z,100529.53
2023-05-02T02:40:35.377Z,100534.09
2023-05-02T02:42:08.961Z,100534.50
2023-05-02T02:43:21.048Z,100538.59
2023-05-02T02:44:46.736Z,100537.97
2023-05-02T02:46:22.697Z,100528.56
2023-05-02T02:47:38.290Z,100535.03
2023-05-02T02:48:57.149Z,100530.66
2023-05-02T02:50:11.270Z,100536.44
2023-05-02T02:51:16.638Z,100531.44
2023-05-02T02:52:23.948Z,100528.53
2023-05-02T02:53:48.075Z,100532.06
2023-05-02T02:55:00.539Z,100527.06
2023-05-02T02:56:06.907Z,100522.91
2023-05-02T02:57:26.562Z,100523.56
2023-05-02T02:58:41.220Z,100523.56
2023-05-02T03:00:09.820Z,100524.78
2023-05-02T03:01:17.086Z,100513.53
2023-05-02T03:02:20.777Z,100506.88
2023-05-02T03:03:26.081Z,100512.28
2023-05-02T03:04:32.053Z,100507.03
2023-05-02T03:05:35.703Z,100501.00
2023-05-02T03:06:38.893Z,100508.06
2023-05-02T03:07:42.592Z,100501.00
2023-05-02T03:08:46.411Z,100503.91
2023-05-02T03:09:54.997Z,100499.72
2023-05-02T03:11:00.872Z,100496.41
2023-05-02T03:12:05.261Z,100501.78
2023-05-02T03:13:10.630Z,100496.75
2023-05-02T03:14:16.124Z,100497.78
2023-05-02T03:15:51.324Z,100500.53
2023-05-02T03:16:59.394Z,100499.00
2023-05-02T03:18:03.674Z,100494.75
2023-05-02T03:19:07.815Z,100496.56
2023-05-02T03:20:11.842Z,100498.34
2023-05-02T03:21:15.714Z,100491.69
2023-05-02T03:22:20.272Z,100489.16
2023-05-02T03:23:23.724Z,100489.16
2023-05-02T03:24:29.458Z,100479.63
2023-05-02T03:25:33.526Z,100485.50
2023-05-02T03:26:37.658Z,100482.41
2023-05-02T03:27:44.333Z,100479.31
2023-05-02T03:28:51.503Z,100485.56
2023-05-02T03:30:01.053Z,100478.50
2023-05-02T03:31:07.456Z,100476.84
2023-05-02T03:32:14.989Z,100486.41
2023-05-02T03:33:20.953Z,100481.66
2023-05-02T03:34:24.580Z,100488.72
2023-05-02T03:35:29.203Z,100483.09
2023-05-02T03:36:32.415Z,100485.63
2023-05-02T03:37:36.267Z,100475.47
2023-05-02T03:38:39.594Z,100480.66
2023-05-02T03:39:47.335Z,100476.09
2023-05-02T03:40:50.674Z,100475.06
2023-05-02T03:41:54.564Z,100478.63
2023-05-02T03:43:00.749Z,100469.50
2023-05-02T03:44:08.207Z,100473.03
2023-05-02T03:45:12.170Z,100465.94
2023-05-02T03:46:16.001Z,100469.69
2023-05-02T03:47:21.410Z,100471.53
2023-05-02T03:48:25.734Z,100476.50
2023-05-02T03:49:28.941Z,100466.72
2023-05-02T03:50:33.291Z,100473.16
2023-05-02T03:51:37.020Z,100474.16
2023-05-02T03:52:40.655Z,100480.63
2023-05-02T03:53:44.978Z,100478.94
2023-05-02T03:54:48.568Z,100471.88
2023-05-02T03:55:52.912Z,100482.66
2023-05-02T03:57:05.498Z,100474.56
2023-05-02T03:58:11.496Z,100473.53
2023-05-02T03:59:16.025Z,100467.75
2023-05-02T04:00:20.415Z,100474.81
2023-05-02T04:01:32.157Z,100466.53
2023-05-02T04:02:38.036Z,100470.69
2023-05-02T04:03:45.032Z,100465.28
2023-05-02T04:04:50.633Z,100460.94
2023-05-02T04:05:56.748Z,100453.88
2023-05-02T04:07:00.435Z,100467.38
2023-05-02T04:08:05.291Z,100473.63
2023-05-02T04:09:09.684Z,100457.19
2023-05-02T04:10:19.697Z,100459.91
2023-05-02T04:11:34.134Z,100458.63
2023-05-02T04:12:39.577Z,100458.63
2023-05-02T04:13:43.362Z,100455.91
2023-05-02T04:14:46.979Z,100454.25
2023-05-02T04:15:51.184Z,100467.75
2023-05-02T04:16:58.515Z,100461.72
2023-05-02T04:18:16.090Z,100463.09
2023-05-02T04:19:20.054Z,100464.34
2023-05-02T04:20:23.708Z,100466.41
2023-05-02T04:21:29.451Z,100459.72
2023-05-02T04:22:34.135Z,100459.31
2023-05-02T04:23:41.504Z,100466.22
2023-05-02T04:24:46.120Z,100465.19
2023-05-02T04:25:54.493Z,100461.66
2023-05-02T04:27:01.619Z,100458.56
2023-05-02T04:28:05.963Z,100453.53
2023-05-02T04:29:09.982Z,100454.38
2023-05-02T04:30:14.009Z,100448.81
2023-05-02T04:31:21.787Z,100447.31
2023-05-02T04:32:25.906Z,100434.72
2023-05-02T04:33:30.168Z,100441.31
2023-05-02T04:34:34.262Z,100443.31
2023-05-02T04:35:38.044Z,100431.81
2023-05-02T04:36:42.222Z,100435.34
2023-05-02T04:37:49.464Z,100434.31
2023-05-02T04:38:54.650Z,100438.69
2023-05-02T04:39:59.227Z,100442.03
2023-05-02T04:41:08.940Z,100445.78
2023-05-02T04:42:18.138Z,100444.94
2023-05-02T04:43:51.325Z,100454.88
2023-05-02T04:44:55.109Z,100450.31
2023-05-02T04:45:59.750Z,100441.19
2023-05-02T04:47:10.319Z,100435.78
2023-05-02T04:48:15.012Z,100439.06
2023-05-02T04:49:18.698Z,100429.28
2023-05-02T04:50:22.493Z,100430.69
2023-05-02T04:51:26.203Z,100424.03
2023-05-02T04:52:29.741Z,100431.47
2023-05-02T04:53:33.442Z,100439.94
2023-05-02T04:54:37.172Z,100434.75
2023-05-02T04:55:41.338Z,100440.31
2023-05-02T04:56:45.015Z,100439.94
2023-05-02T04:57:49.217Z,100442.25
2023-05-02T04:58:53.571Z,100445.22
2023-05-02T04:59:57.331Z,100444.84
2023-05-02T05:01:01.008Z,100447.16
2023-05-02T05:02:05.494Z,100449.84
2023-05-02T05:03:09.593Z,100447.81
2023-05-02T05:04:14.097Z,100447.41
2023-05-02T05:05:18.152Z,100452.44
2023-05-02T05:06:22.228Z,100446.66
2023-05-02T05:07:26.314Z,100450.84
2023-05-02T05:08:31.341Z,100452.97
2023-05-02T05:09:35.798Z,100442.16
2023-05-02T05:10:41.482Z,100445.13
2023-05-02T05:11:47.257Z,100447.25
2023-05-02T05:12:52.009Z,100441.66
2023-05-02T05:13:58.115Z,100446.47
2023-05-02T05:15:03.169Z,100443.19
2023-05-02T05:16:08.156Z,100437.59
2023-05-02T05:17:12.256Z,100438.38
2023-05-02T05:18:15.786Z,100429.59
2023-05-02T05:19:19.696Z,100434.91
2023-05-02T05:20:22.979Z,100434.66
2023-05-02T05:21:29.081Z,100429.63
2023-05-02T05:22:44.868Z,100437.28
2023-05-02T05:23:49.781Z,100425.81
2023-05-02T05:24:59.719Z,100425.81
2023-05-02T05:26:13.956Z,100424.53
2023-05-02T05:27:20.337Z,100419.53
2023-05-02T05:28:23.767Z,100420.56
2023-05-02T05:29:27.133Z,100417.22
2023-05-02T05:30:32.052Z,100419.28
2023-05-02T05:31:37.895Z,100426.06
2023-05-02T05:32:42.272Z,100430.09
2023-05-02T05:33:45.791Z,100428.25
2023-05-02T05:34:54.010Z,100425.53
2023-05-02T05:36:11.686Z,100415.59
2023-05-02T05:37:15.496Z,100421.91
2023-05-02T05:38:18.930Z,100420.63
2023-05-02T05:39:23.845Z,100418.34
2023-05-02T05:40:30.372Z,100416.84
2023-05-02T05:41:35.696Z,100415.72
2023-05-02T05:42:43.340Z,100419.09
2023-05-02T05:43:53.428Z,100420.09
2023-05-02T05:44:56.995Z,100417.81
2023-05-02T05:46:00.633Z,100425.50
2023-05-02T05:47:05.643Z,100427.84
2023-05-02T05:48:09.001Z,100435.16
2023-05-02T05:49:19.758Z,100424.25
2023-05-02T05:50:24.165Z,100418.09
2023-05-02T05:51:28.814Z,100421.72
2023-05-02T05:52:35.648Z,100414.69
2023-05-02T05:53:40.058Z,100416.19
2023-05-02T05:54:46.022Z,100419.28
2023-05-02T05:55:50.546Z,100414.81
2023-05-02T05:56:55.297Z,100425.81
2023-05-02T05:57:58.403Z,100417.63
2023-05-02T05:59:02.209Z,100420.97
2023-05-02T06:00:08.008Z,100421.44
2023-05-02T06:01:32.133Z,100420.66
2023-05-02T06:02:36.268Z,100421.59
2023-05-02T06:03:40.298Z,100414.59
2023-05-02T06:04:44.161Z,100413.00
2023-05-02T06:05:48.076Z,100413.63
2023-05-02T06:06:52.183Z,100419.66
2023-05-02T06:07:56.106Z,100419.28
2023-05-02T06:09:00.098Z,100414.34
2023-05-02T06:10:03.673Z,100403.78
2023-05-02T06:11:12.054Z,100415.69
2023-05-02T06:12:17.371Z,100408.84
2023-05-02T06:13:22.671Z,100407.84
2023-05-02T06:14:27.482Z,100409.91
2023-05-02T06:15:30.911Z,100409.63
2023-05-02T06:16:35.054Z,100408.34
2023-05-02T06:17:39.144Z,100412.88
2023-05-02T06:18:42.874Z,100401.50
2023-05-02T06:19:46.062Z,100409.38
2023-05-02T06:20:49.690Z,100417.69
2023-05-02T06:21:53.332Z,100406.66
2023-05-02T06:22:56.901Z,100413.13
2023-05-02T06:24:00.362Z,100408.81
2023-05-02T06:25:05.848Z,100415.50
2023-05-02T06:26:11.098Z,100415.94
2023-05-02T06:27:14.704Z,100416.19
2023-05-02T06:28:18.596Z,100415.41
2023-05-02T06:29:22.764Z,100413.97
2023-05-02T06:30:27.343Z,100414.22
2023-05-02T06:31:30.402Z,100421.56
2023-05-02T06:32:34.209Z,100417.69
2023-05-02T06:33:37.709Z,100420.91
2023-05-02T06:34:41.062Z,100418.69
2023-05-02T06:35:45.040Z,100419.19
2023-05-02T06:36:48.485Z,100414.47
2023-05-02T06:37:51.985Z,100416.34
2023-05-02T06:38:55.288Z,100419.28
2023-05-02T06:39:59.207Z,100415.78
2023-05-02T06:41:03.335Z,100419.38
2023-05-02T06:42:06.992Z,100415.22
2023-05-02T06:43:15.052Z,100415.22
2023-05-02T06:44:18.544Z,100415.59
2023-05-02T06:45:22.241Z,100415.00
2023-05-02T06:46:29.039Z,100412.91
2023-05-02T06:47:33.404Z,100406.66
2023-05-02T06:48:37.554Z,100413.13
2023-05-02T06:49:40.804Z,100411.09
2023-05-02T06:50:44.415Z,100393.25
2023-05-02T06:51:47.927Z,100405.31
2023-05-02T06:52:50.895Z,100395.94
2023-05-02T06:53:54.415Z,100397.00
2023-05-02T06:54:58.623Z,100390.34
2023-05-02T06:56:02.078Z,100394.06
2023-05-02T06:57:05.790Z,100398.22
2023-05-02T06:58:09.258Z,100390.13
2023-05-02T06:59:13.013Z,100385.81
2023-05-02T07:00:18.142Z,100393.94
2023-05-02T07:01:21.736Z,100388.13
2023-05-02T07:02:25.011Z,100387.94
2023-05-02T07:03:28.707Z,100389.69
2023-05-02T07:04:31.990Z,100389.06
2023-05-02T07:05:35.444Z,100378.88
2023-05-02T07:06:39.112Z,100385.56
2023-05-02T07:07:43.441Z,100380.53
2023-05-02T07:08:47.050Z,100378.84
2023-05-02T07:09:51.056Z,100375.50
2023-05-02T07:10:55.002Z,100382.56
2023-05-02T07:11:58.874Z,100372.16
2023-05-02T07:13:02.432Z,100377.13
2023-05-02T07:14:05.995Z,100377.31
2023-05-02T07:15:09.651Z,100373.53
2023-05-02T07:16:13.189Z,100375.16
2023-05-02T07:17:16.879Z,100378.56
2023-05-02T07:18:20.707Z,100370.59
2023-05-02T07:19:24.156Z,100368.47
2023-05-02T07:20:28.013Z,100370.88
2023-05-02T07:21:33.394Z,100361.28
2023-05-02T07:22:36.559Z,100369.84
2023-05-02T07:23:40.419Z,100364.88
2023-05-02T07:24:44.041Z,100362.94
2023-05-02T07:25:48.815Z,100370.69
2023-05-02T07:26:52.888Z,100369.47
2023-05-02T07:27:56.433Z,100359.00
2023-05-02T07:29:00.504Z,100367.63
2023-05-02T07:30:04.735Z,100370.72
2023-05-02T07:31:08.450Z,100367.22
2023-05-02T07:32:12.467Z,100374.69
2023-05-02T07:33:16.152Z,100377.28
2023-05-02T07:34:19.472Z,100370.44
2023-05-02T07:35:23.144Z,100369.00
2023-05-02T07:36:26.898Z,100362.66
2023-05-02T07:37:35.456Z,100365.94
2023-05-02T07:38:38.959Z,100367.28
2023-05-02T07:39:42.422Z,100366.13
2023-05-02T07:40:47.735Z,100360.59
2023-05-02T07:42:57.940Z,100360.16
2023-05-02T07:44:01.852Z,100354.47
2023-05-02T07:45:05.594Z,100359.19
2023-05-02T07:46:09.741Z,100358.13
2023-05-02T07:47:13.502Z,100352.22
2023-05-02T07:48:16.728Z,100354.03
2023-05-02T07:49:20.956Z,100355.19
2023-05-02T07:50:24.891Z,100361.78
2023-05-02T07:51:29.148Z,100351.81
2023-05-02T07:52:33.338Z,100360.50
2023-05-02T07:53:37.533Z,100355.53
2023-05-02T07:54:41.136Z,100349.91
2023-05-02T07:56:48.421Z,100359.69
2023-05-02T07:57:52.040Z,100364.84
2023-05-02T07:58:56.160Z,100364.84
2023-05-02T08:00:00.606Z,100368.22
2023-05-02T08:01:04.581Z,100367.94
2023-05-02T08:02:08.594Z,100370.59
2023-05-02T08:03:12.422Z,100363.97
2023-05-02T08:04:17.007Z,100369.22
2023-05-02T08:05:20.872Z,100358.06
2023-05-02T08:06:24.398Z,100363.69
2023-05-02T08:07:28.331Z,100364.09
2023-05-02T08:08:31.808Z,100361.78
2023-05-02T08:09:35.625Z,100365.50
2023-05-02T08:10:38.932Z,100363.69
2023-05-02T08:11:42.859Z,100366.03
2023-05-02T08:12:46.415Z,100359.84
2023-05-02T08:13:50.425Z,100363.13
2023-05-02T08:14:54.252Z,100364.72
2023-05-02T08:15:59.345Z,100369.66
2023-05-02T08:17:03.030Z,100371.94
2023-05-02T08:18:06.688Z,100362.44
2023-05-02T08:19:10.688Z,100362.97
2023-05-02T08:20:14.360Z,100368.53
2023-05-02T08:21:17.965Z,100362.22
2023-05-02T08:22:22.342Z,100360.25
2023-05-02T08:23:26.394Z,100369.16
2023-05-02T08:24:30.006Z,100359.44
2023-05-02T08:25:33.527Z,100361.34
2023-05-02T08:26:37.582Z,100362.56
2023-05-02T08:27:41.696Z,100357.34
2023-05-02T08:28:45.508Z,100356.06
2023-05-02T08:29:49.160Z,100353.63
2023-05-02T08:30:52.988Z,100358.50
2023-05-02T08:31:56.297Z,100352.03
2023-05-02T08:32:59.698Z,100355.34
2023-05-02T08:34:03.182Z,100364.16
2023-05-02T08:35:07.415Z,100356.34
2023-05-02T08:36:18.530Z,100356.91
2023-05-02T08:37:22.168Z,100360.16
2023-05-02T08:38:26.014Z,100355.78
2023-05-02T08:39:29.821Z,100364.59
2023-05-02T08:40:42.201Z,100362.19
2023-05-02T08:41:47.254Z,100359.19
2023-05-02T08:42:50.602Z,100351.50
2023-05-02T08:43:54.189Z,100361.94
2023-05-02T08:44:59.024Z,100361.94
2023-05-02T08:46:02.567Z,100356.41
2023-05-02T08:47:07.268Z,100361.28
2023-05-02T08:48:12.911Z,100363.31
2023-05-02T08:49:16.632Z,100359.19
2023-05-02T08:50:20.836Z,100359.16
2023-05-02T08:51:24.392Z,100360.53
2023-05-02T08:52:28.354Z,100357.88
2023-05-02T08:53:36.161Z,100356.91
2023-05-02T08:54:39.605Z,100354.06
2023-05-02T08:55:44.749Z,100354.97
2023-05-02T08:56:48.653Z,100355.09
2023-05-02T08:57:52.582Z,100353.16
2023-05-02T08:58:56.408Z,100355.03
2023-05-02T09:00:00.236Z,100361.69
2023-05-02T09:01:06.272Z,100353.91
2023-05-02T09:02:18.943Z,100359.66
2023-05-02T09:03:25.006Z,100351.66
2023-05-02T09:04:32.474Z,100349.78
2023-05-02T09:05:41.533Z,100353.09
2023-05-02T09:06:45.882Z,100361.81
2023-05-02T09:07:50.350Z,100351.38
2023-05-02T09:08:54.455Z,100354.25
2023-05-02T09:09:58.117Z,100358.56
2023-05-02T09:11:06.402Z,100355.19
2023-05-02T09:12:10.786Z,100345.75
2023-05-02T09:13:45.195Z,100347.00
2023-05-02T09:14:48.361Z,100353.28
2023-05-02T09:16:17.785Z,100346.19
2023-05-02T09:17:22.797Z,100348.72
2023-05-02T09:18:29.018Z,100345.94
2023-05-02T09:19:32.710Z,100353.88
2023-05-02T09:20:41.556Z,100350.28
2023-05-02T09:21:45.027Z,100350.94
2023-05-02T09:22:52.900Z,100346.03
2023-05-02T09:23:57.988Z,100352.13
2023-05-02T09:25:02.512Z,100349.03
2023-05-02T09:26:17.211Z,100359.94
2023-05-02T09:27:20.930Z,100355.22
2023-05-02T09:28:40.154Z,100356.13
2023-05-02T09:29:47.324Z,100349.81
2023-05-02T09:30:50.578Z,100354.00
2023-05-02T09:31:56.607Z,100359.69
2023-05-02T09:33:00.685Z,100358.19
2023-05-02T09:34:17.655Z,100363.19
2023-05-02T09:35:25.273Z,100358.91
2023-05-02T09:36:28.684Z,100358.59
2023-05-02T09:37:38.262Z,100358.59
2023-05-02T09:38:42.436Z,100358.84
2023-05-02T09:40:05.811Z,100353.13
2023-05-02T09:41:08.964Z,100360.69
2023-05-02T09:42:12.640Z,100359.53
2023-05-02T09:43:18.049Z,100360.34
2023-05-02T09:44:23.537Z,100357.03
2023-05-02T09:45:27.693Z,100362.66
2023-05-02T09:46:31.708Z,100349.72
2023-05-02T09:47:35.241Z,100348.13
2023-05-02T09:48:55.015Z,100347.59
2023-05-02T09:49:58.318Z,100353.50
2023-05-02T09:51:02.195Z,100348.13
2023-05-02T09:52:14.492Z,100349.97
2023-05-02T09:53:18.413Z,100338.44
2023-05-02T09:54:37.575Z,100347.97
2023-05-02T09:55:41.550Z,100341.91
2023-05-02T09:56:57.865Z,100345.94
2023-05-02T09:58:02.086Z,100342.94
2023-05-02T09:59:23.670Z,100351.50
2023-05-02T10:00:40.921Z,100355.69
2023-05-02T10:01:44.741Z,100352.38
2023-05-02T10:02:51.365Z,100338.91
2023-05-02T10:03:55.150Z,100354.47
2023-05-02T10:04:59.554Z,100342.38
2023-05-02T10:06:03.634Z,100348.03
2023-05-02T10:07:07.676Z,100338.56
2023-05-02T10:08:11.507Z,100336.63
2023-05-02T10:09:18.860Z,100339.59
2023-05-02T10:10:25.077Z,100341.94
2023-05-02T10:11:28.548Z,100346.03
2023-05-02T10:12:32.320Z,100342.94
2023-05-02T10:13:36.097Z,100343.66
2023-05-02T10:14:43.179Z,100337.53
2023-05-02T10:15:46.820Z,100352.81
2023-05-02T10:17:07.698Z,100345.00
2023-05-02T10:18:17.195Z,100342.88
2023-05-02T10:19:24.959Z,100336.53
2023-05-02T10:20:38.120Z,100352.50
2023-05-02T10:21:42.281Z,100349.00
2023-05-02T10:22:46.748Z,100341.00
2023-05-02T10:23:50.415Z,100339.19
2023-05-02T10:24:54.751Z,100335.41
2023-05-02T10:26:01.260Z,100339.50
2023-05-02T10:27:06.569Z,100331.78
2023-05-02T10:28:11.125Z,100332.50
2023-05-02T10:29:14.476Z,100333.56
2023-05-02T10:30:18.496Z,100325.94
2023-05-02T10:31:22.486Z,100339.72
2023-05-02T10:32:28.176Z,100339.50
2023-05-02T10:33:32.532Z,100336.38
2023-05-02T10:34:36.351Z,100333.47
2023-05-02T10:35:39.535Z,100342.81
2023-05-02T10:36:43.314Z,100341.47
2023-05-02T10:37:47.430Z,100339.28
2023-05-02T10:38:51.420Z,100332.09
2023-05-02T10:39:55.680Z,100339.41
2023-05-02T10:41:05.068Z,100333.84
2023-05-02T10:42:08.753Z,100335.16
2023-05-02T10:43:16.315Z,100327.66
2023-05-02T10:44:19.892Z,100335.00
2023-05-02T10:45:37.340Z,100321.03
2023-05-02T10:46:44.101Z,100316.16
2023-05-02T10:47:47.835Z,100318.38
2023-05-02T10:49:10.762Z,100322.66
2023-05-02T10:50:14.254Z,100317.41
2023-05-02T10:51:22.192Z,100323.72
2023-05-02T10:52:38.869Z,100311.84
2023-05-02T10:53:44.777Z,100312.13
2023-05-02T10:54:49.005Z,100315.84
2023-05-02T10:56:14.830Z,100310.25
2023-05-02T10:57:18.004Z,100310.03
2023-05-02T10:58:22.098Z,100303.63
2023-05-02T10:59:39.053Z,100310.88
2023-05-02T11:00:43.068Z,100305.38
2023-05-02T11:01:46.959Z,100297.94
2023-05-02T11:02:51.266Z,100298.31
2023-05-02T11:04:11.964Z,100303.25
2023-05-02T11:05:15.560Z,100299.47
2023-05-02T11:06:19.564Z,100295.38
2023-05-02T11:07:24.160Z,100288.00
2023-05-02T11:08:28.016Z,100294.22
2023-05-02T11:09:33.607Z,100295.03
2023-05-02T11:10:36.918Z,100289.28
2023-05-02T11:11:44.786Z,100288.00
2023-05-02T11:12:54.623Z,100284.72
2023-05-02T11:13:57.978Z,100289.97
2023-05-02T11:15:01.879Z,100282.09
2023-05-02T11:16:06.238Z,100286.38
2023-05-02T11:17:10.478Z,100288.50
2023-05-02T11:18:15.037Z,100281.47
2023-05-02T11:19:18.507Z,100288.75
2023-05-02T11:20:22.574Z,100278.25
2023-05-02T11:21:29.901Z,100278.81
2023-05-02T11:22:40.004Z,100260.78
2023-05-02T11:23:44.727Z,100275.88
2023-05-02T11:24:51.504Z,100273.03
2023-05-02T11:25:59.023Z,100272.19
2023-05-02T11:27:30.391Z,100276.66
2023-05-02T11:28:49.100Z,100260.13
2023-05-02T11:29:53.490Z,100257.84
2023-05-02T11:30:57.982Z,100262.47
2023-05-02T11:32:01.877Z,100257.66
2023-05-02T11:33:05.392Z,100261.75
2023-05-02T11:34:08.650Z,100269.13
2023-05-02T11:35:22.461Z,100259.56
2023-05-02T11:36:35.172Z,100259.44
2023-05-02T11:37:39.501Z,100263.34
2023-05-02T11:38:43.635Z,100267.66
2023-05-02T11:39:52.053Z,100272.09
2023-05-02T11:41:03.614Z,100278.78
2023-05-02T11:42:07.271Z,100269.19
2023-05-02T11:43:17.423Z,100263.38
2023-05-02T11:44:21.998Z,100266.16
2023-05-02T11:45:37.972Z,100266.91
2023-05-02T11:46:42.296Z,100256.59
2023-05-02T11:47:49.409Z,100257.59
2023-05-02T11:48:53.371Z,100259.00
2023-05-02T11:49:57.155Z,100253.88
2023-05-02T11:51:06.189Z,100248.69
2023-05-02T11:52:10.395Z,100254.91
2023-05-02T11:53:18.892Z,100253.59
2023-05-02T11:54:22.654Z,100247.66
2023-05-02T11:55:26.088Z,100247.88
2023-05-02T11:56:29.710Z,100253.59
2023-05-02T11:57:37.036Z,100250.81
2023-05-02T11:58:41.013Z,100256.53
2023-05-02T12:00:12.005Z,100241.09
2023-05-02T12:01:16.435Z,100244.22
2023-05-02T12:02:20.433Z,100243.41
2023-05-02T12:03:30.485Z,100240.59
2023-05-02T12:04:38.595Z,100241.47
2023-05-02T12:05:41.996Z,100245.22
2023-05-02T12:07:00.936Z,100232.09
2023-05-02T12:08:04.782Z,100238.66
2023-05-02T12:09:17.775Z,100237.50
2023-05-02T12:10:21.528Z,100229.16
2023-05-02T12:11:25.451Z,100234.84
2023-05-02T12:12:29.239Z,100236.38
2023-05-02T12:13:33.024Z,100223.78
2023-05-02T12:14:38.567Z,100234.22
2023-05-02T12:15:42.959Z,100228.19
2023-05-02T12:16:46.752Z,100221.22
2023-05-02T12:17:53.250Z,100217.50
2023-05-02T12:19:00.272Z,100208.91
2023-05-02T12:20:10.341Z,100228.75
2023-05-02T12:21:13.999Z,100230.00
2023-05-02T12:22:18.062Z,100217.22
2023-05-02T12:23:22.177Z,100215.00
2023-05-02T12:24:26.077Z,100218.03
2023-05-02T12:25:30.153Z,100208.38
2023-05-02T12:26:34.637Z,100221.44
2023-05-02T12:27:39.009Z,100222.78
2023-05-02T12:28:52.728Z,100219.69
2023-05-02T12:29:58.025Z,100218.16
2023-05-02T12:31:01.309Z,100227.03
2023-05-02T12:32:05.572Z,100213.91
2023-05-02T12:33:08.887Z,100211.09
2023-05-02T12:34:12.833Z,100224.38
2023-05-02T12:35:23.474Z,100208.91
2023-05-02T12:36:30.500Z,100215.22
2023-05-02T12:37:33.979Z,100220.19
2023-05-02T12:38:38.079Z,100226.56
2023-05-02T12:39:43.432Z,100228.25